sensor_id;sensor_type;location;lat;lon;timestamp;temperature;humidity
4795;DHT22;2411;47.060;15.064;2023-07-28T00:01:20;14.50;1.00
4795;DHT22;2411;47.060;15.064;2023-07-28T00:03:47;14.30;1.00
4795;DHT22;2411;47.060;15.064;2023-07-28T00:06:14;14.40;1.00
4795;DHT22;2411;47.060;15.064;2023-07-28T00:08:42;14.30;1.00
4795;DHT22;2411;47.060;15.064;2023-07-28T00:11:10;14.10;1.00
4795;DHT22;2411;47.060;15.064;2023-07-28T00:13:39;14.00;1.00
4795;DHT22;2411;47.060;15.064;2023-07-28T00:16:08;14.00;1.00
4795;DHT22;2411;47.060;15.064;2023-07-28T00:18:35;14.10;1.00
4795;DHT22;2411;47.060;15.064;2023-07-28T00:21:05;14.30;1.00
4795;DHT22;2411;47.060;15.064;2023-07-28T00:23:32;14.40;1.00
4795;DHT22;2411;47.060;15.064;2023-07-28T00:25:59;14.30;1.00
4795;DHT22;2411;47.060;15.064;2023-07-28T00:28:27;14.30;1.00
4795;DHT22;2411;47.060;15.064;2023-07-28T00:30:54;14.10;1.00
4795;DHT22;2411;47.060;15.064;2023-07-28T00:33:21;14.00;1.00
4795;DHT22;2411;47.060;15.064;2023-07-28T00:35:49;14.10;1.00
4795;DHT22;2411;47.060;15.064;2023-07-28T00:38:16;14.20;1.00
4795;DHT22;2411;47.060;15.064;2023-07-28T00:40:44;14.00;1.00
4795;DHT22;2411;47.060;15.064;2023-07-28T00:43:11;13.90;1.00
4795;DHT22;2411;47.060;15.064;2023-07-28T00:45:39;13.90;1.00
4795;DHT22;2411;47.060;15.064;2023-07-28T00:48:12;13.90;1.00
4795;DHT22;2411;47.060;15.064;2023-07-28T00:50:41;13.90;1.00
4795;DHT22;2411;47.060;15.064;2023-07-28T00:53:09;13.90;1.00
4795;DHT22;2411;47.060;15.064;2023-07-28T00:55:37;14.30;1.00
4795;DHT22;2411;47.060;15.064;2023-07-28T00:58:05;14.20;1.00
4795;DHT22;2411;47.060;15.064;2023-07-28T01:00:32;14.20;1.00
4795;DHT22;2411;47.060;15.064;2023-07-28T01:03:00;14.10;1.00
4795;DHT22;2411;47.060;15.064;2023-07-28T01:05:57;14.20;1.00
4795;DHT22;2411;47.060;15.064;2023-07-28T01:08:32;14.00;1.00
4795;DHT22;2411;47.060;15.064;2023-07-28T01:11:01;14.10;1.00
4795;DHT22;2411;47.060;15.064;2023-07-28T01:13:28;14.50;1.00
4795;DHT22;2411;47.060;15.064;2023-07-28T01:15:56;14.40;1.00
4795;DHT22;2411;47.060;15.064;2023-07-28T01:18:25;14.50;1.00
4795;DHT22;2411;47.060;15.064;2023-07-28T01:20:53;14.30;1.00
4795;DHT22;2411;47.060;15.064;2023-07-28T01:23:42;14.10;1.00
4795;DHT22;2411;47.060;15.064;2023-07-28T01:26:12;14.00;1.00
4795;DHT22;2411;47.060;15.064;2023-07-28T01:28:43;14.20;1.00
4795;DHT22;2411;47.060;15.064;2023-07-28T01:31:11;14.30;1.00
4795;DHT22;2411;47.060;15.064;2023-07-28T01:33:39;14.10;1.00
4795;DHT22;2411;47.060;15.064;2023-07-28T01:36:06;14.30;1.00
4795;DHT22;2411;47.060;15.064;2023-07-28T01:38:33;14.30;1.00
4795;DHT22;2411;47.060;15.064;2023-07-28T01:41:01;14.10;1.00
4795;DHT22;2411;47.060;15.064;2023-07-28T01:43:28;13.90;1.00
4795;DHT22;2411;47.060;15.064;2023-07-28T01:45:55;13.70;1.00
4795;DHT22;2411;47.060;15.064;2023-07-28T01:48:22;13.70;1.00
4795;DHT22;2411;47.060;15.064;2023-07-28T01:50:50;13.50;1.00
4795;DHT22;2411;47.060;15.064;2023-07-28T01:53:17;13.60;1.00
4795;DHT22;2411;47.060;15.064;2023-07-28T01:55:45;13.90;1.00
4795;DHT22;2411;47.060;15.064;2023-07-28T01:58:13;13.60;1.00
4795;DHT22;2411;47.060;15.064;2023-07-28T02:00:40;13.30;1.00
4795;DHT22;2411;47.060;15.064;2023-07-28T02:03:07;13.30;1.00
4795;DHT22;2411;47.060;15.064;2023-07-28T02:05:35;13.30;1.00
4795;DHT22;2411;47.060;15.064;2023-07-28T02:08:02;13.60;1.00
4795;DHT22;2411;47.060;15.064;2023-07-28T02:10:30;13.50;1.00
4795;DHT22;2411;47.060;15.064;2023-07-28T02:12:57;13.50;1.00
4795;DHT22;2411;47.060;15.064;2023-07-28T02:15:24;13.60;1.00
4795;DHT22;2411;47.060;15.064;2023-07-28T02:17:52;13.60;1.00
4795;DHT22;2411;47.060;15.064;2023-07-28T02:20:19;13.70;1.00
4795;DHT22;2411;47.060;15.064;2023-07-28T02:22:47;13.90;1.00
4795;DHT22;2411;47.060;15.064;2023-07-28T02:25:14;14.00;1.00
4795;DHT22;2411;47.060;15.064;2023-07-28T02:27:41;13.90;1.00
4795;DHT22;2411;47.060;15.064;2023-07-28T02:30:09;13.60;1.00
4795;DHT22;2411;47.060;15.064;2023-07-28T02:32:37;13.70;1.00
4795;DHT22;2411;47.060;15.064;2023-07-28T02:35:05;13.60;1.00
4795;DHT22;2411;47.060;15.064;2023-07-28T02:37:32;13.20;1.00
4795;DHT22;2411;47.060;15.064;2023-07-28T02:40:00;13.00;1.00
4795;DHT22;2411;47.060;15.064;2023-07-28T02:42:27;12.80;1.00
4795;DHT22;2411;47.060;15.064;2023-07-28T02:44:55;12.80;1.00
4795;DHT22;2411;47.060;15.064;2023-07-28T02:47:22;12.70;1.00
4795;DHT22;2411;47.060;15.064;2023-07-28T02:49:49;12.70;1.00
4795;DHT22;2411;47.060;15.064;2023-07-28T02:52:17;12.70;1.00
4795;DHT22;2411;47.060;15.064;2023-07-28T02:54:44;13.00;1.00
4795;DHT22;2411;47.060;15.064;2023-07-28T02:57:11;12.90;1.00
4795;DHT22;2411;47.060;15.064;2023-07-28T02:59:39;12.70;1.00
4795;DHT22;2411;47.060;15.064;2023-07-28T03:02:06;12.60;1.00
4795;DHT22;2411;47.060;15.064;2023-07-28T03:04:33;12.60;1.00
4795;DHT22;2411;47.060;15.064;2023-07-28T03:07:01;12.60;1.00
4795;DHT22;2411;47.060;15.064;2023-07-28T03:09:28;12.90;1.00
4795;DHT22;2411;47.060;15.064;2023-07-28T03:11:55;13.30;1.00
4795;DHT22;2411;47.060;15.064;2023-07-28T03:14:22;12.90;1.00
4795;DHT22;2411;47.060;15.064;2023-07-28T03:16:51;13.20;1.00
4795;DHT22;2411;47.060;15.064;2023-07-28T03:19:19;12.90;1.00
4795;DHT22;2411;47.060;15.064;2023-07-28T03:21:46;12.60;1.00
4795;DHT22;2411;47.060;15.064;2023-07-28T03:24:13;12.40;1.00
4795;DHT22;2411;47.060;15.064;2023-07-28T03:26:40;12.40;1.00
4795;DHT22;2411;47.060;15.064;2023-07-28T03:29:08;12.30;1.00
4795;DHT22;2411;47.060;15.064;2023-07-28T03:31:35;12.30;1.00
4795;DHT22;2411;47.060;15.064;2023-07-28T03:34:04;12.30;1.00
4795;DHT22;2411;47.060;15.064;2023-07-28T03:36:32;12.30;1.00
4795;DHT22;2411;47.060;15.064;2023-07-28T03:39:00;12.60;1.00
4795;DHT22;2411;47.060;15.064;2023-07-28T03:41:27;12.40;1.00
4795;DHT22;2411;47.060;15.064;2023-07-28T03:43:55;12.30;1.00
4795;DHT22;2411;47.060;15.064;2023-07-28T03:46:22;12.30;1.00
4795;DHT22;2411;47.060;15.064;2023-07-28T03:48:49;12.30;1.00
4795;DHT22;2411;47.060;15.064;2023-07-28T03:51:17;12.50;1.00
4795;DHT22;2411;47.060;15.064;2023-07-28T03:53:44;12.70;1.00
4795;DHT22;2411;47.060;15.064;2023-07-28T03:56:11;12.70;1.00
4795;DHT22;2411;47.060;15.064;2023-07-28T03:58:39;12.70;1.00
4795;DHT22;2411;47.060;15.064;2023-07-28T04:01:06;12.30;1.00
4795;DHT22;2411;47.060;15.064;2023-07-28T04:03:34;12.20;1.00
4795;DHT22;2411;47.060;15.064;2023-07-28T04:06:09;12.30;1.00
4795;DHT22;2411;47.060;15.064;2023-07-28T04:08:36;12.70;1.00
4795;DHT22;2411;47.060;15.064;2023-07-28T04:11:04;12.50;1.00
4795;DHT22;2411;47.060;15.064;2023-07-28T04:13:32;12.50;1.00
4795;DHT22;2411;47.060;15.064;2023-07-28T04:16:00;12.70;1.00
4795;DHT22;2411;47.060;15.064;2023-07-28T04:18:27;12.40;1.00
4795;DHT22;2411;47.060;15.064;2023-07-28T04:20:55;12.30;1.00
4795;DHT22;2411;47.060;15.064;2023-07-28T04:23:22;12.30;1.00
4795;DHT22;2411;47.060;15.064;2023-07-28T04:25:49;12.30;1.00
4795;DHT22;2411;47.060;15.064;2023-07-28T04:28:17;12.40;1.00
4795;DHT22;2411;47.060;15.064;2023-07-28T04:30:44;12.60;1.00
4795;DHT22;2411;47.060;15.064;2023-07-28T04:33:11;12.70;1.00
4795;DHT22;2411;47.060;15.064;2023-07-28T04:35:38;13.00;1.00
4795;DHT22;2411;47.060;15.064;2023-07-28T04:38:06;13.20;1.00
4795;DHT22;2411;47.060;15.064;2023-07-28T04:40:33;13.30;1.00
4795;DHT22;2411;47.060;15.064;2023-07-28T04:43:00;13.40;1.00
4795;DHT22;2411;47.060;15.064;2023-07-28T04:45:28;13.50;1.00
4795;DHT22;2411;47.060;15.064;2023-07-28T04:47:55;13.50;1.00
4795;DHT22;2411;47.060;15.064;2023-07-28T04:50:22;13.50;1.00
4795;DHT22;2411;47.060;15.064;2023-07-28T04:52:50;13.60;1.00
4795;DHT22;2411;47.060;15.064;2023-07-28T04:55:17;13.80;1.00
4795;DHT22;2411;47.060;15.064;2023-07-28T04:57:45;14.00;1.00
4795;DHT22;2411;47.060;15.064;2023-07-28T05:00:12;14.20;1.00
4795;DHT22;2411;47.060;15.064;2023-07-28T05:02:40;14.30;1.00
4795;DHT22;2411;47.060;15.064;2023-07-28T05:05:07;14.20;1.00
4795;DHT22;2411;47.060;15.064;2023-07-28T05:07:35;14.20;1.00
4795;DHT22;2411;47.060;15.064;2023-07-28T05:10:03;14.40;1.00
4795;DHT22;2411;47.060;15.064;2023-07-28T05:12:30;14.50;1.00
4795;DHT22;2411;47.060;15.064;2023-07-28T05:14:58;14.60;1.00
4795;DHT22;2411;47.060;15.064;2023-07-28T05:17:25;14.90;1.00
4795;DHT22;2411;47.060;15.064;2023-07-28T05:19:52;15.00;1.00
4795;DHT22;2411;47.060;15.064;2023-07-28T05:22:20;15.10;1.00
4795;DHT22;2411;47.060;15.064;2023-07-28T05:24:47;15.30;1.00
4795;DHT22;2411;47.060;15.064;2023-07-28T05:27:14;15.50;1.00
4795;DHT22;2411;47.060;15.064;2023-07-28T05:29:42;15.60;1.00
4795;DHT22;2411;47.060;15.064;2023-07-28T05:32:09;15.70;1.00
4795;DHT22;2411;47.060;15.064;2023-07-28T05:34:36;15.80;1.00
4795;DHT22;2411;47.060;15.064;2023-07-28T05:37:04;16.00;1.00
4795;DHT22;2411;47.060;15.064;2023-07-28T05:39:32;16.10;1.00
4795;DHT22;2411;47.060;15.064;2023-07-28T05:41:59;16.30;1.00
4795;DHT22;2411;47.060;15.064;2023-07-28T05:44:26;16.40;1.00
4795;DHT22;2411;47.060;15.064;2023-07-28T05:46:54;16.60;1.00
4795;DHT22;2411;47.060;15.064;2023-07-28T05:49:22;16.80;1.00
4795;DHT22;2411;47.060;15.064;2023-07-28T05:51:49;16.90;1.00
4795;DHT22;2411;47.060;15.064;2023-07-28T05:54:16;17.10;1.00
4795;DHT22;2411;47.060;15.064;2023-07-28T05:56:44;17.20;1.00
4795;DHT22;2411;47.060;15.064;2023-07-28T05:59:11;17.40;1.00
4795;DHT22;2411;47.060;15.064;2023-07-28T06:01:39;17.50;1.00
4795;DHT22;2411;47.060;15.064;2023-07-28T06:04:06;17.60;1.00
4795;DHT22;2411;47.060;15.064;2023-07-28T06:06:33;17.60;1.00
4795;DHT22;2411;47.060;15.064;2023-07-28T06:09:01;17.70;1.00
4795;DHT22;2411;47.060;15.064;2023-07-28T06:11:28;17.80;1.00
4795;DHT22;2411;47.060;15.064;2023-07-28T06:13:56;18.10;1.00
4795;DHT22;2411;47.060;15.064;2023-07-28T06:16:24;18.20;1.00
4795;DHT22;2411;47.060;15.064;2023-07-28T06:18:51;18.10;1.00
4795;DHT22;2411;47.060;15.064;2023-07-28T06:21:18;18.20;1.00
4795;DHT22;2411;47.060;15.064;2023-07-28T06:23:46;18.30;1.00
4795;DHT22;2411;47.060;15.064;2023-07-28T06:26:13;18.30;1.00
4795;DHT22;2411;47.060;15.064;2023-07-28T06:28:41;18.40;1.00
4795;DHT22;2411;47.060;15.064;2023-07-28T06:31:08;18.60;1.00
4795;DHT22;2411;47.060;15.064;2023-07-28T06:33:37;18.80;1.00
4795;DHT22;2411;47.060;15.064;2023-07-28T06:36:05;18.90;1.00
4795;DHT22;2411;47.060;15.064;2023-07-28T06:38:32;19.00;1.00
4795;DHT22;2411;47.060;15.064;2023-07-28T06:41:00;19.10;1.00
4795;DHT22;2411;47.060;15.064;2023-07-28T06:43:27;19.30;1.00
4795;DHT22;2411;47.060;15.064;2023-07-28T06:45:55;19.20;1.00
4795;DHT22;2411;47.060;15.064;2023-07-28T06:48:22;19.20;1.00
4795;DHT22;2411;47.060;15.064;2023-07-28T06:50:49;19.40;1.00
4795;DHT22;2411;47.060;15.064;2023-07-28T06:53:17;19.40;1.00
4795;DHT22;2411;47.060;15.064;2023-07-28T06:55:45;19.40;1.00
4795;DHT22;2411;47.060;15.064;2023-07-28T06:58:12;19.50;1.00
4795;DHT22;2411;47.060;15.064;2023-07-28T07:00:40;19.40;1.00
4795;DHT22;2411;47.060;15.064;2023-07-28T07:03:07;19.70;1.00
4795;DHT22;2411;47.060;15.064;2023-07-28T07:05:34;19.80;1.00
4795;DHT22;2411;47.060;15.064;2023-07-28T07:08:02;19.90;1.00
4795;DHT22;2411;47.060;15.064;2023-07-28T07:10:29;20.00;1.00
4795;DHT22;2411;47.060;15.064;2023-07-28T07:12:57;20.10;1.00
4795;DHT22;2411;47.060;15.064;2023-07-28T07:15:25;20.20;1.00
4795;DHT22;2411;47.060;15.064;2023-07-28T07:17:52;20.50;1.00
4795;DHT22;2411;47.060;15.064;2023-07-28T07:20:20;20.50;1.00
4795;DHT22;2411;47.060;15.064;2023-07-28T07:22:47;20.70;1.00
4795;DHT22;2411;47.060;15.064;2023-07-28T07:25:15;20.80;1.00
4795;DHT22;2411;47.060;15.064;2023-07-28T07:27:42;20.90;1.00
4795;DHT22;2411;47.060;15.064;2023-07-28T07:30:10;20.90;1.00
4795;DHT22;2411;47.060;15.064;2023-07-28T07:32:37;21.00;1.00
4795;DHT22;2411;47.060;15.064;2023-07-28T07:35:05;21.20;1.00
4795;DHT22;2411;47.060;15.064;2023-07-28T07:37:33;21.40;1.00
4795;DHT22;2411;47.060;15.064;2023-07-28T07:40:00;21.50;1.00
4795;DHT22;2411;47.060;15.064;2023-07-28T07:42:30;21.60;1.00
4795;DHT22;2411;47.060;15.064;2023-07-28T07:45:12;21.80;1.00
4795;DHT22;2411;47.060;15.064;2023-07-28T07:47:40;21.70;1.00
4795;DHT22;2411;47.060;15.064;2023-07-28T07:50:09;21.80;1.00
4795;DHT22;2411;47.060;15.064;2023-07-28T07:52:37;21.90;1.00
4795;DHT22;2411;47.060;15.064;2023-07-28T07:55:10;22.10;1.00
4795;DHT22;2411;47.060;15.064;2023-07-28T07:57:40;22.10;1.00
4795;DHT22;2411;47.060;15.064;2023-07-28T08:00:09;22.20;1.00
4795;DHT22;2411;47.060;15.064;2023-07-28T08:02:38;22.00;1.00
4795;DHT22;2411;47.060;15.064;2023-07-28T08:05:06;22.20;1.00
4795;DHT22;2411;47.060;15.064;2023-07-28T08:07:34;22.40;1.00
4795;DHT22;2411;47.060;15.064;2023-07-28T08:10:02;22.50;1.00
4795;DHT22;2411;47.060;15.064;2023-07-28T08:12:30;22.50;1.00
4795;DHT22;2411;47.060;15.064;2023-07-28T08:14:57;22.50;1.00
4795;DHT22;2411;47.060;15.064;2023-07-28T08:17:25;22.30;1.00
4795;DHT22;2411;47.060;15.064;2023-07-28T08:19:52;22.20;1.00
4795;DHT22;2411;47.060;15.064;2023-07-28T08:22:20;22.30;1.00
4795;DHT22;2411;47.060;15.064;2023-07-28T08:24:47;22.30;1.00
4795;DHT22;2411;47.060;15.064;2023-07-28T08:27:14;22.50;1.00
4795;DHT22;2411;47.060;15.064;2023-07-28T08:29:42;22.70;1.00
4795;DHT22;2411;47.060;15.064;2023-07-28T08:32:09;22.90;1.00
4795;DHT22;2411;47.060;15.064;2023-07-28T08:34:37;23.20;1.00
4795;DHT22;2411;47.060;15.064;2023-07-28T08:37:04;23.20;1.00
4795;DHT22;2411;47.060;15.064;2023-07-28T08:39:32;23.40;1.00
4795;DHT22;2411;47.060;15.064;2023-07-28T08:42:01;23.50;1.00
4795;DHT22;2411;47.060;15.064;2023-07-28T08:44:32;23.40;1.00
4795;DHT22;2411;47.060;15.064;2023-07-28T08:47:01;23.70;1.00
4795;DHT22;2411;47.060;15.064;2023-07-28T08:49:29;23.70;1.00
4795;DHT22;2411;47.060;15.064;2023-07-28T08:52:00;23.90;1.00
4795;DHT22;2411;47.060;15.064;2023-07-28T08:54:28;23.80;1.00
4795;DHT22;2411;47.060;15.064;2023-07-28T08:56:58;24.00;1.00
4795;DHT22;2411;47.060;15.064;2023-07-28T08:59:27;24.10;1.00
4795;DHT22;2411;47.060;15.064;2023-07-28T09:01:56;24.40;1.00
4795;DHT22;2411;47.060;15.064;2023-07-28T09:04:25;24.20;1.00
4795;DHT22;2411;47.060;15.064;2023-07-28T09:06:52;24.40;1.00
4795;DHT22;2411;47.060;15.064;2023-07-28T09:09:23;24.60;1.00
4795;DHT22;2411;47.060;15.064;2023-07-28T09:11:52;24.90;1.00
4795;DHT22;2411;47.060;15.064;2023-07-28T09:14:22;25.00;1.00
4795;DHT22;2411;47.060;15.064;2023-07-28T09:16:53;24.90;1.00
4795;DHT22;2411;47.060;15.064;2023-07-28T09:19:21;24.70;1.00
4795;DHT22;2411;47.060;15.064;2023-07-28T09:22:02;24.60;1.00
4795;DHT22;2411;47.060;15.064;2023-07-28T09:24:33;24.40;1.00
4795;DHT22;2411;47.060;15.064;2023-07-28T09:27:01;24.40;1.00
4795;DHT22;2411;47.060;15.064;2023-07-28T09:29:29;24.50;1.00
4795;DHT22;2411;47.060;15.064;2023-07-28T09:32:05;24.20;1.00
4795;DHT22;2411;47.060;15.064;2023-07-28T09:34:32;24.50;1.00
4795;DHT22;2411;47.060;15.064;2023-07-28T09:37:00;24.50;1.00
4795;DHT22;2411;47.060;15.064;2023-07-28T09:39:28;24.70;1.00
4795;DHT22;2411;47.060;15.064;2023-07-28T09:41:56;24.80;1.00
4795;DHT22;2411;47.060;15.064;2023-07-28T09:44:26;24.80;1.00
4795;DHT22;2411;47.060;15.064;2023-07-28T09:46:55;24.90;1.00
4795;DHT22;2411;47.060;15.064;2023-07-28T09:49:37;24.70;1.00
4795;DHT22;2411;47.060;15.064;2023-07-28T09:52:09;24.70;1.00
4795;DHT22;2411;47.060;15.064;2023-07-28T09:54:39;24.90;1.00
4795;DHT22;2411;47.060;15.064;2023-07-28T09:57:14;24.80;1.00
4795;DHT22;2411;47.060;15.064;2023-07-28T09:59:45;24.60;1.00
4795;DHT22;2411;47.060;15.064;2023-07-28T10:02:14;24.50;1.00
4795;DHT22;2411;47.060;15.064;2023-07-28T10:04:42;24.80;1.00
4795;DHT22;2411;47.060;15.064;2023-07-28T10:07:10;24.90;1.00
4795;DHT22;2411;47.060;15.064;2023-07-28T10:09:40;25.20;1.00
4795;DHT22;2411;47.060;15.064;2023-07-28T10:12:18;25.30;1.00
4795;DHT22;2411;47.060;15.064;2023-07-28T10:14:45;25.40;1.00
4795;DHT22;2411;47.060;15.064;2023-07-28T10:17:17;25.60;1.00
4795;DHT22;2411;47.060;15.064;2023-07-28T10:19:44;25.90;1.00
4795;DHT22;2411;47.060;15.064;2023-07-28T10:22:12;25.80;1.00
4795;DHT22;2411;47.060;15.064;2023-07-28T10:24:55;25.90;1.00
4795;DHT22;2411;47.060;15.064;2023-07-28T10:27:36;26.30;1.00
4795;DHT22;2411;47.060;15.064;2023-07-28T10:30:15;26.80;1.00
4795;DHT22;2411;47.060;15.064;2023-07-28T10:32:44;27.10;1.00
4795;DHT22;2411;47.060;15.064;2023-07-28T10:37:45;27.70;1.00
4795;DHT22;2411;47.060;15.064;2023-07-28T10:40:33;27.70;1.00
4795;DHT22;2411;47.060;15.064;2023-07-28T10:43:04;28.00;1.00
4795;DHT22;2411;47.060;15.064;2023-07-28T10:45:34;28.30;1.00
4795;DHT22;2411;47.060;15.064;2023-07-28T10:48:02;28.10;1.00
4795;DHT22;2411;47.060;15.064;2023-07-28T10:50:31;28.10;1.00
4795;DHT22;2411;47.060;15.064;2023-07-28T10:52:59;28.20;1.00
4795;DHT22;2411;47.060;15.064;2023-07-28T10:55:27;27.90;1.00
4795;DHT22;2411;47.060;15.064;2023-07-28T10:57:55;27.40;1.00
4795;DHT22;2411;47.060;15.064;2023-07-28T11:00:25;27.20;1.00
4795;DHT22;2411;47.060;15.064;2023-07-28T11:02:53;27.30;1.00
4795;DHT22;2411;47.060;15.064;2023-07-28T11:05:24;27.20;1.00
4795;DHT22;2411;47.060;15.064;2023-07-28T11:07:54;27.30;1.00
4795;DHT22;2411;47.060;15.064;2023-07-28T11:10:23;27.10;1.00
4795;DHT22;2411;47.060;15.064;2023-07-28T11:12:52;27.10;1.00
4795;DHT22;2411;47.060;15.064;2023-07-28T11:15:19;27.20;1.00
4795;DHT22;2411;47.060;15.064;2023-07-28T11:17:48;27.20;1.00
4795;DHT22;2411;47.060;15.064;2023-07-28T11:22:59;27.30;1.00
4795;DHT22;2411;47.060;15.064;2023-07-28T11:25:28;27.10;1.00
4795;DHT22;2411;47.060;15.064;2023-07-28T11:27:55;27.00;1.00
4795;DHT22;2411;47.060;15.064;2023-07-28T11:30:24;26.80;1.00
4795;DHT22;2411;47.060;15.064;2023-07-28T11:32:52;26.80;1.00
4795;DHT22;2411;47.060;15.064;2023-07-28T11:35:21;26.60;1.00
4795;DHT22;2411;47.060;15.064;2023-07-28T11:37:52;26.40;1.00
4795;DHT22;2411;47.060;15.064;2023-07-28T11:40:22;26.20;1.00
4795;DHT22;2411;47.060;15.064;2023-07-28T11:42:53;26.00;1.00
4795;DHT22;2411;47.060;15.064;2023-07-28T11:45:22;26.00;1.00
4795;DHT22;2411;47.060;15.064;2023-07-28T11:47:57;25.90;1.00
4795;DHT22;2411;47.060;15.064;2023-07-28T11:50:29;26.00;1.00
4795;DHT22;2411;47.060;15.064;2023-07-28T11:52:57;25.90;1.00
4795;DHT22;2411;47.060;15.064;2023-07-28T11:55:26;26.00;1.00
4795;DHT22;2411;47.060;15.064;2023-07-28T11:57:54;25.90;1.00
4795;DHT22;2411;47.060;15.064;2023-07-28T12:00:29;25.90;1.00
4795;DHT22;2411;47.060;15.064;2023-07-28T12:03:08;25.90;1.00
4795;DHT22;2411;47.060;15.064;2023-07-28T12:06:03;25.80;1.00
4795;DHT22;2411;47.060;15.064;2023-07-28T12:08:36;25.70;1.00
4795;DHT22;2411;47.060;15.064;2023-07-28T12:11:04;25.90;1.00
4795;DHT22;2411;47.060;15.064;2023-07-28T12:13:49;26.00;1.00
4795;DHT22;2411;47.060;15.064;2023-07-28T12:16:41;25.90;1.00
4795;DHT22;2411;47.060;15.064;2023-07-28T12:19:14;25.70;1.00
4795;DHT22;2411;47.060;15.064;2023-07-28T12:21:41;25.50;1.00
4795;DHT22;2411;47.060;15.064;2023-07-28T12:24:09;25.40;1.00
4795;DHT22;2411;47.060;15.064;2023-07-28T12:26:36;25.50;1.00
4795;DHT22;2411;47.060;15.064;2023-07-28T12:29:07;26.10;1.00
4795;DHT22;2411;47.060;15.064;2023-07-28T12:31:38;26.40;1.00
4795;DHT22;2411;47.060;15.064;2023-07-28T12:34:09;26.50;1.00
4795;DHT22;2411;47.060;15.064;2023-07-28T12:36:36;26.60;1.00
4795;DHT22;2411;47.060;15.064;2023-07-28T12:39:07;26.50;1.00
4795;DHT22;2411;47.060;15.064;2023-07-28T12:41:37;26.50;1.00
4795;DHT22;2411;47.060;15.064;2023-07-28T12:44:10;26.20;1.00
4795;DHT22;2411;47.060;15.064;2023-07-28T12:46:42;26.10;1.00
4795;DHT22;2411;47.060;15.064;2023-07-28T12:49:10;26.00;1.00
4795;DHT22;2411;47.060;15.064;2023-07-28T12:51:47;25.80;1.00
4795;DHT22;2411;47.060;15.064;2023-07-28T12:54:17;25.80;1.00
4795;DHT22;2411;47.060;15.064;2023-07-28T12:56:46;25.70;1.00
4795;DHT22;2411;47.060;15.064;2023-07-28T12:59:15;25.70;1.00
4795;DHT22;2411;47.060;15.064;2023-07-28T13:01:45;25.80;1.00
4795;DHT22;2411;47.060;15.064;2023-07-28T13:04:13;25.60;1.00
4795;DHT22;2411;47.060;15.064;2023-07-28T13:06:41;25.50;1.00
4795;DHT22;2411;47.060;15.064;2023-07-28T13:09:08;25.30;1.00
4795;DHT22;2411;47.060;15.064;2023-07-28T13:11:39;25.50;1.00
4795;DHT22;2411;47.060;15.064;2023-07-28T13:14:09;25.50;1.00
4795;DHT22;2411;47.060;15.064;2023-07-28T13:16:36;25.50;1.00
4795;DHT22;2411;47.060;15.064;2023-07-28T13:19:05;25.50;1.00
4795;DHT22;2411;47.060;15.064;2023-07-28T13:21:32;25.40;1.00
4795;DHT22;2411;47.060;15.064;2023-07-28T13:24:00;25.50;1.00
4795;DHT22;2411;47.060;15.064;2023-07-28T13:26:28;25.60;1.00
4795;DHT22;2411;47.060;15.064;2023-07-28T13:28:55;25.60;1.00
4795;DHT22;2411;47.060;15.064;2023-07-28T13:31:25;25.50;1.00
4795;DHT22;2411;47.060;15.064;2023-07-28T13:33:52;25.50;1.00
4795;DHT22;2411;47.060;15.064;2023-07-28T13:36:22;25.30;1.00
4795;DHT22;2411;47.060;15.064;2023-07-28T13:38:49;25.00;1.00
4795;DHT22;2411;47.060;15.064;2023-07-28T13:41:16;24.70;1.00
4795;DHT22;2411;47.060;15.064;2023-07-28T13:43:44;24.50;1.00
4795;DHT22;2411;47.060;15.064;2023-07-28T13:46:11;24.50;1.00
4795;DHT22;2411;47.060;15.064;2023-07-28T13:48:39;24.50;1.00
4795;DHT22;2411;47.060;15.064;2023-07-28T13:51:09;24.50;1.00
4795;DHT22;2411;47.060;15.064;2023-07-28T13:53:46;24.90;1.00
4795;DHT22;2411;47.060;15.064;2023-07-28T13:56:33;25.00;1.00
4795;DHT22;2411;47.060;15.064;2023-07-28T13:59:01;25.50;1.00
4795;DHT22;2411;47.060;15.064;2023-07-28T14:01:28;25.80;1.00
4795;DHT22;2411;47.060;15.064;2023-07-28T14:03:55;26.10;1.00
4795;DHT22;2411;47.060;15.064;2023-07-28T14:06:23;26.30;1.00
4795;DHT22;2411;47.060;15.064;2023-07-28T14:08:50;26.50;1.00
4795;DHT22;2411;47.060;15.064;2023-07-28T14:11:17;26.70;1.00
4795;DHT22;2411;47.060;15.064;2023-07-28T14:13:45;26.60;1.00
4795;DHT22;2411;47.060;15.064;2023-07-28T14:16:12;26.70;1.00
4795;DHT22;2411;47.060;15.064;2023-07-28T14:18:39;26.40;1.00
4795;DHT22;2411;47.060;15.064;2023-07-28T14:21:07;26.20;1.00
4795;DHT22;2411;47.060;15.064;2023-07-28T14:23:35;26.50;1.00
4795;DHT22;2411;47.060;15.064;2023-07-28T14:26:02;26.80;1.00
4795;DHT22;2411;47.060;15.064;2023-07-28T14:28:30;27.00;1.00
4795;DHT22;2411;47.060;15.064;2023-07-28T14:30:57;27.10;1.00
4795;DHT22;2411;47.060;15.064;2023-07-28T14:33:25;27.30;1.00
4795;DHT22;2411;47.060;15.064;2023-07-28T14:35:52;27.40;1.00
4795;DHT22;2411;47.060;15.064;2023-07-28T14:38:20;27.70;1.00
4795;DHT22;2411;47.060;15.064;2023-07-28T14:40:48;27.90;1.00
4795;DHT22;2411;47.060;15.064;2023-07-28T14:43:16;28.00;1.00
4795;DHT22;2411;47.060;15.064;2023-07-28T14:45:44;28.20;1.00
4795;DHT22;2411;47.060;15.064;2023-07-28T14:48:11;28.30;1.00
4795;DHT22;2411;47.060;15.064;2023-07-28T14:50:39;28.50;1.00
4795;DHT22;2411;47.060;15.064;2023-07-28T14:53:35;28.50;1.00
4795;DHT22;2411;47.060;15.064;2023-07-28T14:56:04;28.70;1.00
4795;DHT22;2411;47.060;15.064;2023-07-28T14:58:32;28.60;1.00
4795;DHT22;2411;47.060;15.064;2023-07-28T15:01:00;28.40;1.00
4795;DHT22;2411;47.060;15.064;2023-07-28T15:03:29;28.50;1.00
4795;DHT22;2411;47.060;15.064;2023-07-28T15:05:59;28.20;1.00
4795;DHT22;2411;47.060;15.064;2023-07-28T15:08:27;28.20;1.00
4795;DHT22;2411;47.060;15.064;2023-07-28T15:10:55;28.40;1.00
4795;DHT22;2411;47.060;15.064;2023-07-28T15:13:23;28.50;1.00
4795;DHT22;2411;47.060;15.064;2023-07-28T15:15:50;29.00;1.00
4795;DHT22;2411;47.060;15.064;2023-07-28T15:18:18;29.00;1.00
4795;DHT22;2411;47.060;15.064;2023-07-28T15:20:45;29.20;1.00
4795;DHT22;2411;47.060;15.064;2023-07-28T15:23:12;29.20;1.00
4795;DHT22;2411;47.060;15.064;2023-07-28T15:25:40;29.10;1.00
4795;DHT22;2411;47.060;15.064;2023-07-28T15:28:11;29.20;1.00
4795;DHT22;2411;47.060;15.064;2023-07-28T15:30:39;29.10;1.00
4795;DHT22;2411;47.060;15.064;2023-07-28T15:33:09;29.10;1.00
4795;DHT22;2411;47.060;15.064;2023-07-28T15:35:36;29.00;1.00
4795;DHT22;2411;47.060;15.064;2023-07-28T15:38:03;28.80;1.00
4795;DHT22;2411;47.060;15.064;2023-07-28T15:40:31;28.60;1.00
4795;DHT22;2411;47.060;15.064;2023-07-28T15:42:58;28.40;1.00
4795;DHT22;2411;47.060;15.064;2023-07-28T15:45:26;28.00;1.00
4795;DHT22;2411;47.060;15.064;2023-07-28T15:47:53;27.90;1.00
4795;DHT22;2411;47.060;15.064;2023-07-28T15:50:21;27.50;1.00
4795;DHT22;2411;47.060;15.064;2023-07-28T15:52:48;27.30;1.00
4795;DHT22;2411;47.060;15.064;2023-07-28T15:55:20;27.20;1.00
4795;DHT22;2411;47.060;15.064;2023-07-28T15:57:48;27.10;1.00
4795;DHT22;2411;47.060;15.064;2023-07-28T16:00:15;27.00;1.00
4795;DHT22;2411;47.060;15.064;2023-07-28T16:02:43;26.90;1.00
4795;DHT22;2411;47.060;15.064;2023-07-28T16:05:11;26.60;1.00
4795;DHT22;2411;47.060;15.064;2023-07-28T16:07:38;26.50;1.00
4795;DHT22;2411;47.060;15.064;2023-07-28T16:10:07;26.20;1.00
4795;DHT22;2411;47.060;15.064;2023-07-28T16:12:36;26.10;1.00
4795;DHT22;2411;47.060;15.064;2023-07-28T16:15:05;25.90;1.00
4795;DHT22;2411;47.060;15.064;2023-07-28T16:17:32;25.80;1.00